createdAt,value
2022-11-29T00:02:22.652Z,32.57
2022-11-29T00:04:52.215Z,40.10
2022-11-29T00:07:20.299Z,37.83
2022-11-29T00:09:48.368Z,40.40
2022-11-29T00:12:16.458Z,42.53
2022-11-29T00:14:44.773Z,40.13
2022-11-29T00:17:12.956Z,43.40
2022-11-29T00:19:41.180Z,52.83
2022-11-29T00:22:10.584Z,49.63
2022-11-29T00:24:38.637Z,53.50
2022-11-29T00:27:06.769Z,56.40
2022-11-29T00:29:34.801Z,55.03
2022-11-29T00:32:03.138Z,48.67
2022-11-29T00:34:31.355Z,46.53
2022-11-29T00:36:59.496Z,44.93
2022-11-29T00:39:28.994Z,44.30
2022-11-29T00:41:57.010Z,47.60
2022-11-29T00:44:25.237Z,48.37
2022-11-29T00:46:53.276Z,62.83
2022-11-29T00:49:21.348Z,50.13
2022-11-29T00:51:49.574Z,60.90
2022-11-29T00:54:18.813Z,49.03
2022-11-29T00:56:48.236Z,50.20
2022-11-29T00:59:16.306Z,48.70
2022-11-29T01:01:44.378Z,48.53
2022-11-29T01:04:12.641Z,58.60
2022-11-29T01:06:40.634Z,54.60
2022-11-29T01:09:08.700Z,54.97
2022-11-29T01:11:37.137Z,48.87
2022-11-29T01:14:06.608Z,52.60
2022-11-29T01:16:35.058Z,48.90
2022-11-29T01:19:03.937Z,49.33
2022-11-29T01:21:32.139Z,47.27
2022-11-29T01:24:01.045Z,46.13
2022-11-29T01:26:30.894Z,44.93
2022-11-29T01:28:59.877Z,43.27
2022-11-29T01:31:31.420Z,57.23
2022-11-29T01:34:01.460Z,45.47
2022-11-29T01:36:29.625Z,51.13
2022-11-29T01:39:00.669Z,42.20
2022-11-29T01:44:02.345Z,46.53
2022-11-29T01:46:34.281Z,40.93
2022-11-29T01:49:06.553Z,43.40
2022-11-29T01:51:37.128Z,43.80
2022-11-29T01:54:06.484Z,46.88
2022-11-29T01:56:35.803Z,49.77
2022-11-29T01:59:07.360Z,49.23
2022-11-29T02:01:37.810Z,43.70
2022-11-29T02:04:07.082Z,53.83
2022-11-29T02:06:36.614Z,45.23
2022-11-29T02:09:04.860Z,48.93
2022-11-29T02:12:01.405Z,41.23
2022-11-29T02:14:52.627Z,43.30
2022-11-29T02:20:35.947Z,41.47
2022-11-29T02:23:24.642Z,38.63
2022-11-29T02:26:04.625Z,34.77
2022-11-29T02:29:04.661Z,34.13
2022-11-29T02:32:07.988Z,31.80
2022-11-29T02:34:55.066Z,37.50
2022-11-29T02:37:45.197Z,39.20
2022-11-29T02:40:31.723Z,39.47
2022-11-29T02:43:20.498Z,43.93
2022-11-29T02:46:04.529Z,47.33
2022-11-29T02:48:52.782Z,41.57
2022-11-29T02:51:29.471Z,38.23
2022-11-29T02:54:02.753Z,44.90
2022-11-29T02:56:38.700Z,49.33
2022-11-29T02:59:12.740Z,51.37
2022-11-29T03:01:53.320Z,42.50
2022-11-29T03:04:32.533Z,45.53
2022-11-29T03:07:08.288Z,51.20
2022-11-29T03:09:45.120Z,43.10
2022-11-29T03:12:21.939Z,36.47
2022-11-29T03:14:58.569Z,43.57
2022-11-29T03:17:43.222Z,49.50
2022-11-29T03:20:29.687Z,43.87
2022-11-29T03:23:14.959Z,49.63
2022-11-29T03:25:47.378Z,46.47
2022-11-29T03:28:20.338Z,49.10
2022-11-29T03:30:57.178Z,37.17
2022-11-29T03:33:33.046Z,43.27
2022-11-29T03:36:09.767Z,46.90
2022-11-29T03:38:41.774Z,50.07
2022-11-29T03:41:21.017Z,47.67
2022-11-29T03:43:56.189Z,52.30
2022-11-29T03:46:30.532Z,47.43
2022-11-29T03:49:04.513Z,45.53
2022-11-29T03:51:48.016Z,48.93
2022-11-29T03:54:22.323Z,52.23
2022-11-29T03:56:51.071Z,52.93
2022-11-29T03:59:52.534Z,44.47
2022-11-29T04:02:47.637Z,49.10
2022-11-29T04:05:29.325Z,46.10
2022-11-29T04:08:12.661Z,46.83
2022-11-29T04:11:07.245Z,48.83
2022-11-29T04:14:05.888Z,45.70
2022-11-29T04:17:20.405Z,49.33
2022-11-29T04:20:09.439Z,42.40
2022-11-29T04:23:08.241Z,45.87
2022-11-29T04:25:49.808Z,46.50
2022-11-29T04:28:53.962Z,48.07
2022-11-29T04:31:36.271Z,43.57
2022-11-29T04:34:24.631Z,42.63
2022-11-29T04:37:15.754Z,41.00
2022-11-29T04:39:58.533Z,42.85
2022-11-29T04:42:40.134Z,41.00
2022-11-29T04:45:36.471Z,41.43
2022-11-29T04:48:20.363Z,34.83
2022-11-29T04:51:00.683Z,37.40
2022-11-29T04:53:39.960Z,36.63
2022-11-29T04:56:16.313Z,35.40
2022-11-29T04:58:51.920Z,34.60
2022-11-29T05:01:31.203Z,34.73
2022-11-29T05:04:05.679Z,35.47
2022-11-29T05:06:40.027Z,38.33
2022-11-29T05:09:17.955Z,32.03
2022-11-29T05:11:59.779Z,30.53
2022-11-29T05:14:42.336Z,36.27
2022-11-29T05:17:27.105Z,31.73
2022-11-29T05:20:05.402Z,28.93
2022-11-29T05:22:41.520Z,36.10
2022-11-29T05:25:29.010Z,34.97
2022-11-29T05:28:05.699Z,36.40
2022-11-29T05:30:56.950Z,36.28
2022-11-29T05:33:46.048Z,31.37
2022-11-29T05:36:25.605Z,35.00
2022-11-29T05:39:21.650Z,34.67
2022-11-29T05:42:04.859Z,41.37
2022-11-29T05:44:38.361Z,34.20
2022-11-29T05:47:10.095Z,37.87
2022-11-29T05:49:45.492Z,32.97
2022-11-29T05:52:25.349Z,37.57
2022-11-29T05:55:18.146Z,35.50
2022-11-29T05:57:54.132Z,33.77
2022-11-29T06:00:23.329Z,33.50
2022-11-29T06:03:00.105Z,39.23
2022-11-29T06:05:37.003Z,37.20
2022-11-29T06:08:12.156Z,39.53
2022-11-29T06:10:42.714Z,43.20
2022-11-29T06:13:21.946Z,34.78
2022-11-29T06:16:19.250Z,42.70
2022-11-29T06:19:20.805Z,39.40
2022-11-29T06:21:59.497Z,38.07
2022-11-29T06:24:42.676Z,33.27
2022-11-29T06:27:26.768Z,36.20
2022-11-29T06:30:03.247Z,34.53
2022-11-29T06:32:40.245Z,38.87
2022-11-29T06:35:12.775Z,33.73
2022-11-29T06:37:47.466Z,37.30
2022-11-29T06:40:17.169Z,31.93
2022-11-29T06:42:45.676Z,36.53
2022-11-29T06:45:15.644Z,30.67
2022-11-29T06:47:45.588Z,25.43
2022-11-29T06:50:34.312Z,37.80
2022-11-29T06:53:10.450Z,32.20
2022-11-29T06:55:48.418Z,33.13
2022-11-29T06:59:31.264Z,35.80
2022-11-29T07:02:05.868Z,34.70
2022-11-29T07:04:51.732Z,36.53
2022-11-29T07:07:22.333Z,34.73
2022-11-29T07:09:56.950Z,33.65
2022-11-29T07:12:25.803Z,27.37
2022-11-29T07:14:54.609Z,31.43
2022-11-29T07:17:28.775Z,29.30
2022-11-29T07:20:08.047Z,34.40
2022-11-29T07:22:49.415Z,31.63
2022-11-29T07:25:28.362Z,34.00
2022-11-29T07:28:05.682Z,36.97
2022-11-29T07:30:43.322Z,34.43
2022-11-29T07:33:20.309Z,31.90
2022-11-29T07:35:56.979Z,37.33
2022-11-29T07:38:34.802Z,38.33
2022-11-29T07:41:13.034Z,33.63
2022-11-29T07:43:48.696Z,41.67
2022-11-29T07:46:16.775Z,39.90
2022-11-29T07:48:44.830Z,36.47
2022-11-29T07:51:12.854Z,38.43
2022-11-29T07:53:44.419Z,39.40
2022-11-29T07:56:16.244Z,40.37
2022-11-29T07:58:44.341Z,39.57
2022-11-29T08:01:12.821Z,46.83
2022-11-29T08:03:42.636Z,35.53
2022-11-29T08:06:10.747Z,37.23
2022-11-29T08:08:43.686Z,35.23
2022-11-29T08:11:15.948Z,36.90
2022-11-29T08:13:44.293Z,37.70
2022-11-29T08:16:17.809Z,41.57
2022-11-29T08:18:45.980Z,31.57
2022-11-29T08:21:17.995Z,46.03
2022-11-29T08:23:46.206Z,33.17
2022-11-29T08:26:18.461Z,39.77
2022-11-29T08:31:15.011Z,37.87
2022-11-29T08:33:44.372Z,34.07
2022-11-29T08:36:15.103Z,39.60
2022-11-29T08:38:43.264Z,37.42
2022-11-29T08:41:14.413Z,37.67
2022-11-29T08:43:44.218Z,34.27
2022-11-29T08:46:17.956Z,39.20
2022-11-29T08:48:46.922Z,38.57
2022-11-29T08:51:15.197Z,40.70
2022-11-29T08:53:42.221Z,31.23
2022-11-29T08:56:59.644Z,31.73
2022-11-29T08:59:01.410Z,36.87
2022-11-29T09:01:30.113Z,35.10
2022-11-29T09:04:02.870Z,35.47
2022-11-29T09:06:32.952Z,37.93
2022-11-29T09:09:02.144Z,40.17
2022-11-29T09:11:31.155Z,43.87
2022-11-29T09:14:02.996Z,37.87
2022-11-29T09:16:34.378Z,40.13
2022-11-29T09:19:02.654Z,41.03
2022-11-29T09:21:32.390Z,38.43
2022-11-29T09:24:01.127Z,44.87
2022-11-29T09:26:30.438Z,41.87
2022-11-29T09:29:01.210Z,44.63
2022-11-29T09:31:31.472Z,36.10
2022-11-29T09:33:59.742Z,32.35
2022-11-29T09:36:29.197Z,33.03
2022-11-29T09:38:59.675Z,33.93
2022-11-29T09:41:57.270Z,29.88
2022-11-29T09:44:34.167Z,28.10
2022-11-29T09:47:20.391Z,32.33
2022-11-29T09:50:17.698Z,30.73
2022-11-29T09:52:53.047Z,31.10
2022-11-29T09:55:47.084Z,33.07
2022-11-29T09:58:18.621Z,36.77
2022-11-29T10:00:50.331Z,39.17
2022-11-29T10:03:26.359Z,43.00
2022-11-29T10:05:59.346Z,36.60
2022-11-29T10:08:34.309Z,34.80
2022-11-29T10:11:15.471Z,31.30
2022-11-29T10:16:21.784Z,30.23
2022-11-29T10:19:41.324Z,28.23
2022-11-29T10:22:18.117Z,27.63
2022-11-29T10:24:49.838Z,28.37
2022-11-29T10:27:23.743Z,26.30
2022-11-29T10:29:52.311Z,23.23
2022-11-29T10:32:24.749Z,26.53
2022-11-29T10:34:57.532Z,27.37
2022-11-29T10:38:30.413Z,30.97
2022-11-29T10:41:07.656Z,28.97
2022-11-29T10:43:37.336Z,29.37
2022-11-29T10:46:07.582Z,30.90
2022-11-29T10:48:35.866Z,28.63
2022-11-29T10:51:16.195Z,33.40
2022-11-29T10:53:45.879Z,33.83
2022-11-29T10:56:25.108Z,30.47
2022-11-29T10:58:58.999Z,34.40
2022-11-29T11:01:29.164Z,31.73
2022-11-29T11:04:31.245Z,34.78
2022-11-29T11:07:02.353Z,33.73
2022-11-29T11:09:57.624Z,31.33
2022-11-29T11:12:29.024Z,29.43
2022-11-29T11:15:16.827Z,34.10
2022-11-29T11:17:57.045Z,37.93
2022-11-29T11:20:30.205Z,35.37
2022-11-29T11:23:05.358Z,35.93
2022-11-29T11:25:35.650Z,31.27
2022-11-29T11:28:18.156Z,35.38
2022-11-29T11:30:52.655Z,33.50
2022-11-29T11:33:22.812Z,34.97
2022-11-29T11:36:10.953Z,43.13
2022-11-29T11:38:43.049Z,38.90
2022-11-29T11:41:19.984Z,49.33
2022-11-29T11:43:58.492Z,36.53
2022-11-29T11:46:47.808Z,39.87
2022-11-29T11:49:26.704Z,38.00
2022-11-29T11:51:54.893Z,39.13
2022-11-29T11:54:24.468Z,38.60
2022-11-29T11:56:53.564Z,40.27
2022-11-29T11:59:26.380Z,37.43
2022-11-29T12:01:54.559Z,40.97
2022-11-29T12:04:26.361Z,34.23
2022-11-29T12:08:07.229Z,39.67
2022-11-29T12:10:36.070Z,39.23
2022-11-29T12:15:38.228Z,43.23
2022-11-29T12:18:12.585Z,42.40
2022-11-29T12:20:45.373Z,41.87
2022-11-29T12:23:36.579Z,44.33
2022-11-29T12:28:40.413Z,42.22
2022-11-29T12:31:25.503Z,42.13
2022-11-29T12:34:04.202Z,49.03
2022-11-29T12:36:41.652Z,48.30
2022-11-29T12:39:40.852Z,44.97
2022-11-29T12:42:18.623Z,41.97
2022-11-29T12:44:55.840Z,41.47
2022-11-29T12:47:36.769Z,43.53
2022-11-29T12:50:21.679Z,37.30
2022-11-29T12:53:01.344Z,44.13
2022-11-29T12:55:37.409Z,38.43
2022-11-29T12:58:15.210Z,35.10
2022-11-29T13:00:51.359Z,39.97
2022-11-29T13:03:27.393Z,40.63
2022-11-29T13:06:08.386Z,38.30
2022-11-29T13:08:52.224Z,48.28
2022-11-29T13:11:24.754Z,42.97
2022-11-29T13:14:19.832Z,46.37
2022-11-29T13:16:56.224Z,43.07
2022-11-29T13:19:34.592Z,41.97
2022-11-29T13:22:11.287Z,44.20
2022-11-29T13:24:44.226Z,38.60
2022-11-29T13:27:19.788Z,41.30
2022-11-29T13:29:50.165Z,46.00
2022-11-29T13:32:37.346Z,36.17
2022-11-29T13:35:13.746Z,37.70
2022-11-29T13:37:54.772Z,40.53
2022-11-29T13:40:31.703Z,39.47
2022-11-29T13:43:06.377Z,40.23
2022-11-29T13:45:43.335Z,35.77
2022-11-29T13:48:34.724Z,34.60
2022-11-29T13:51:23.791Z,31.07
2022-11-29T13:53:52.710Z,29.07
2022-11-29T13:56:32.845Z,28.10
2022-11-29T13:59:02.186Z,24.17
2022-11-29T14:01:45.331Z,24.07
2022-11-29T14:04:26.229Z,28.23
2022-11-29T14:07:04.986Z,28.05
2022-11-29T14:09:37.479Z,26.97
2022-11-29T14:12:18.890Z,27.27
2022-11-29T14:14:53.180Z,26.23
2022-11-29T14:17:46.573Z,26.43
2022-11-29T14:20:45.676Z,24.03
2022-11-29T14:23:30.776Z,25.90
2022-11-29T14:26:32.401Z,23.17
2022-11-29T14:29:01.464Z,22.67
2022-11-29T14:31:54.529Z,24.63
2022-11-29T14:34:43.180Z,24.43
2022-11-29T14:37:36.476Z,25.90
2022-11-29T14:40:18.760Z,24.53
2022-11-29T14:42:48.804Z,26.43
2022-11-29T14:45:26.772Z,23.20
2022-11-29T14:47:54.983Z,24.43
2022-11-29T14:50:34.779Z,25.00
2022-11-29T14:53:04.486Z,25.97
2022-11-29T14:55:36.594Z,23.23
2022-11-29T14:58:22.674Z,27.10
2022-11-29T15:01:09.962Z,23.77
2022-11-29T15:03:46.833Z,24.63
2022-11-29T15:06:24.098Z,19.87
2022-11-29T15:08:58.699Z,24.03
2022-11-29T15:11:49.518Z,25.43
2022-11-29T15:14:27.407Z,16.42
2022-11-29T15:17:17.068Z,21.60
2022-11-29T15:20:11.328Z,16.43
2022-11-29T15:22:49.183Z,23.60
2022-11-29T15:25:21.791Z,20.03
2022-11-29T15:27:54.490Z,22.93
2022-11-29T15:30:29.580Z,21.00
2022-11-29T15:32:58.778Z,18.50
2022-11-29T15:35:26.963Z,19.97
2022-11-29T15:37:57.390Z,20.60
2022-11-29T15:40:31.489Z,18.00
2022-11-29T15:43:12.804Z,22.70
2022-11-29T15:45:41.284Z,21.13
2022-11-29T15:48:16.703Z,20.47
2022-11-29T15:50:53.180Z,19.97
2022-11-29T15:53:27.366Z,17.80
2022-11-29T15:55:59.385Z,17.67
2022-11-29T15:58:29.676Z,22.13
2022-11-29T16:00:59.370Z,22.70
2022-11-29T16:03:30.911Z,21.43
2022-11-29T16:06:06.987Z,23.97
2022-11-29T16:08:42.650Z,26.57
2022-11-29T16:11:17.025Z,23.70
2022-11-29T16:14:02.349Z,24.43
2022-11-29T16:16:32.802Z,22.43
2022-11-29T16:19:11.637Z,23.02
2022-11-29T16:21:40.030Z,22.20
2022-11-29T16:24:22.026Z,23.73
2022-11-29T16:26:52.031Z,47.57
2022-11-29T16:29:24.515Z,35.43
2022-11-29T16:31:53.519Z,26.27
2022-11-29T16:34:27.182Z,24.53
2022-11-29T16:37:03.781Z,22.90
2022-11-29T16:39:35.421Z,27.03
2022-11-29T16:42:08.328Z,24.93
2022-11-29T16:44:55.693Z,23.40
2022-11-29T16:47:26.045Z,24.40
2022-11-29T16:50:17.276Z,21.15
2022-11-29T16:55:16.162Z,24.27
2022-11-29T16:57:45.211Z,24.88
2022-11-29T17:00:24.435Z,26.37
2022-11-29T17:02:52.564Z,27.53
2022-11-29T17:05:20.616Z,29.53
2022-11-29T17:07:49.435Z,26.50
2022-11-29T17:10:22.041Z,21.47
2022-11-29T17:12:50.430Z,25.67
2022-11-29T17:15:18.553Z,26.30
2022-11-29T17:17:47.793Z,22.40
2022-11-29T17:20:16.061Z,25.97
2022-11-29T17:22:44.158Z,22.97
2022-11-29T17:25:12.336Z,25.13
2022-11-29T17:27:41.776Z,30.30
2022-11-29T17:30:11.448Z,28.90
2022-11-29T17:32:39.597Z,28.47
2022-11-29T17:35:08.279Z,27.83
2022-11-29T17:37:36.503Z,27.67
2022-11-29T17:40:04.920Z,27.07
2022-11-29T17:42:33.038Z,25.83
2022-11-29T17:45:02.467Z,29.07
2022-11-29T17:47:30.731Z,32.17
2022-11-29T17:49:59.134Z,30.37
2022-11-29T17:52:27.214Z,28.70
2022-11-29T17:54:55.294Z,31.67
2022-11-29T17:57:23.621Z,26.83
2022-11-29T17:59:51.701Z,29.77
2022-11-29T18:02:21.181Z,35.27
2022-11-29T18:05:14.427Z,29.60
2022-11-29T18:07:58.140Z,32.13
2022-11-29T18:10:27.702Z,31.23
2022-11-29T18:12:55.771Z,31.17
2022-11-29T18:15:23.909Z,33.17
2022-11-29T18:17:53.586Z,31.00
2022-11-29T18:20:21.691Z,30.00
2022-11-29T18:22:49.845Z,30.07
2022-11-29T18:25:38.015Z,34.60
2022-11-29T18:28:08.459Z,32.77
2022-11-29T18:30:36.753Z,35.03
2022-11-29T18:33:06.225Z,34.40
2022-11-29T18:35:34.374Z,35.30
2022-11-29T18:38:17.858Z,34.40
2022-11-29T18:40:46.563Z,34.53
2022-11-29T18:43:17.297Z,31.73
2022-11-29T18:45:45.501Z,37.33
2022-11-29T18:48:15.001Z,32.37
2022-11-29T18:50:43.150Z,35.53
2022-11-29T18:53:11.301Z,34.77
2022-11-29T18:55:39.597Z,37.23
2022-11-29T18:58:08.268Z,36.87
2022-11-29T19:00:36.415Z,41.77
2022-11-29T19:03:04.612Z,35.47
2022-11-29T19:05:34.305Z,35.20
2022-11-29T19:08:02.464Z,42.43
2022-11-29T19:10:30.689Z,35.37
2022-11-29T19:12:58.764Z,45.30
2022-11-29T19:15:26.784Z,48.47
2022-11-29T19:17:54.958Z,39.07
2022-11-29T19:20:23.149Z,42.47
2022-11-29T19:23:00.176Z,49.33
2022-11-29T19:25:28.648Z,41.53
2022-11-29T19:27:57.179Z,41.43
2022-11-29T19:30:25.405Z,38.90
2022-11-29T19:32:53.747Z,49.33
2022-11-29T19:35:21.808Z,42.70
2022-11-29T19:37:50.085Z,43.07
2022-11-29T19:40:20.115Z,40.67
2022-11-29T19:42:48.596Z,44.67
2022-11-29T19:45:18.183Z,44.70
2022-11-29T19:47:46.714Z,47.77
2022-11-29T19:50:14.950Z,45.73
2022-11-29T19:52:43.320Z,44.17
2022-11-29T19:55:11.510Z,41.17
2022-11-29T19:57:40.985Z,43.90
2022-11-29T20:00:10.303Z,45.93
2022-11-29T20:02:42.612Z,43.80
2022-11-29T20:05:12.003Z,45.60
2022-11-29T20:07:40.139Z,40.53
2022-11-29T20:10:09.176Z,41.03
2022-11-29T20:12:37.436Z,36.43
2022-11-29T20:15:08.792Z,42.87
2022-11-29T20:17:38.015Z,44.00
2022-11-29T20:20:07.462Z,43.90
2022-11-29T20:22:35.754Z,36.87
2022-11-29T20:25:04.157Z,38.27
2022-11-29T20:27:32.630Z,39.90
2022-11-29T20:30:00.785Z,40.43
2022-11-29T20:32:33.767Z,36.13
2022-11-29T20:35:02.688Z,38.80
2022-11-29T20:37:49.499Z,41.03
2022-11-29T20:40:21.066Z,36.47
2022-11-29T20:43:06.162Z,36.93
2022-11-29T20:45:34.899Z,34.13
2022-11-29T20:48:13.289Z,44.43
2022-11-29T20:50:44.165Z,40.87
2022-11-29T20:53:32.640Z,39.22
2022-11-29T20:56:01.573Z,34.57
2022-11-29T20:58:29.797Z,38.87
2022-11-29T21:01:02.175Z,35.57
2022-11-29T21:03:32.246Z,38.90
2022-11-29T21:06:03.702Z,35.03
2022-11-29T21:08:32.027Z,38.27
2022-11-29T21:11:03.714Z,37.77
2022-11-29T21:13:32.457Z,37.20
2022-11-29T21:16:01.677Z,36.87
2022-11-29T21:18:32.771Z,38.20
2022-11-29T21:23:50.433Z,31.00
2022-11-29T21:26:24.265Z,36.17
2022-11-29T21:29:00.997Z,38.83
2022-11-29T21:31:29.667Z,36.73
2022-11-29T21:33:59.792Z,37.50
2022-11-29T21:36:28.226Z,33.03
2022-11-29T21:38:58.740Z,36.47
2022-11-29T21:41:29.039Z,40.03
2022-11-29T21:44:12.555Z,36.83
2022-11-29T21:46:40.729Z,37.83
2022-11-29T21:49:10.172Z,36.87
2022-11-29T21:51:39.488Z,36.97
2022-11-29T21:54:07.619Z,36.43
2022-11-29T21:56:35.674Z,35.90
2022-11-29T21:59:03.861Z,37.27
2022-11-29T22:01:33.831Z,36.37
2022-11-29T22:04:05.660Z,36.03
2022-11-29T22:06:36.754Z,38.87
2022-11-29T22:11:36.207Z,40.22
2022-11-29T22:14:16.183Z,43.50
2022-11-29T22:16:45.798Z,48.43
2022-11-29T22:19:15.374Z,41.93
2022-11-29T22:21:46.624Z,39.83
2022-11-29T22:26:43.734Z,38.57
2022-11-29T22:29:13.956Z,37.37
2022-11-29T22:31:42.767Z,41.87
2022-11-29T22:34:11.813Z,41.97
2022-11-29T22:36:40.851Z,42.40
2022-11-29T22:39:10.303Z,42.40
2022-11-29T22:41:39.590Z,37.03
2022-11-29T22:44:08.420Z,40.50
2022-11-29T22:46:40.735Z,43.38
2022-11-29T22:49:09.405Z,40.55
2022-11-29T22:51:38.820Z,40.60
2022-11-29T22:54:09.474Z,42.73
2022-11-29T22:56:40.829Z,41.17
2022-11-29T22:59:09.195Z,43.23
2022-11-29T23:01:38.865Z,42.47
2022-11-29T23:04:35.046Z,43.73
2022-11-29T23:07:03.288Z,48.23
2022-11-29T23:09:31.457Z,45.80
2022-11-29T23:12:00.880Z,41.17
2022-11-29T23:14:29.056Z,42.57
2022-11-29T23:16:57.114Z,38.60
2022-11-29T23:19:25.218Z,39.53
2022-11-29T23:21:56.575Z,44.53
2022-11-29T23:26:52.531Z,43.83
2022-11-29T23:29:21.995Z,42.70
2022-11-29T23:31:50.515Z,43.37
2022-11-29T23:34:18.669Z,49.43
2022-11-29T23:36:51.329Z,41.87
2022-11-29T23:39:20.871Z,51.13
2022-11-29T23:41:48.976Z,47.93
2022-11-29T23:44:16.974Z,52.33
2022-11-29T23:46:46.572Z,45.77
2022-11-29T23:49:14.734Z,44.53
2022-11-29T23:51:42.835Z,53.30
2022-11-29T23:54:10.903Z,53.37
2022-11-29T23:56:38.983Z,58.30
2022-11-29T23:59:07.220Z,57.47
